Bei Facebook empfehlenBei Twitter postenGoogle plusPinterest

Das Wetter im Erzgebirge am 04.01.2016

Wetter und Klima am 04.01.2016 Holzhau im Erzgebirge (630m ü.NN)
Letzte gemessene Temperatur und Uhrzeit der Messung23:45:00 Uhr-6.70 °C
Temperatur (Maximum / Höchstwert) und Uhrzeit der Messung23:45:00 Uhr-6.70 °C
Temperatur (Minimum / Tiefstwert) und Uhrzeit der Messung06:45:00-8.60 °C
Errechneter Absolutwert der Temperaturschwankungen zwischen Tmin und Tmax des Tages1.90 K
Errechnete Tagesmitteltemperatur-7.62188 °C
Gesamt - Niederschlag des Tages (in flüssiger Form)0.00 Liter / m²
Luftdruck (Maximum / Höchstwert) und Zeitpunkt der Messung00:00:00 Uhr997.30 hPa
Luftdruck (Minimum / Tiefstwert) und Zeitpunkt der Messung13:30:00 Uhr990.10 hPa
Errechneter Absolutwert der Luftdruckschwankungen des Tages7.20 hPa
Höchste gemessene Windgeschwindigkeit und Uhrzeit der Messung05:30:00 Uhr21.96 km/h
Errechnete Windhäufigkeit in Relation zu den Messwerten des Tages53.12500 %
Niedrigste Windkühle (Windchill) und Zeitpunkt der Messung05:30:00 Uhr-16.50 °C
Taupunkt (Maximum / Höchstwert) und Uhrzeit der Messung23:45:00 Uhr-8.20 °C
Taupunkt (Minimum / Tiefstwert) und Uhrzeit der Messung06:45:00-10.00 °C
Anzahl der automatisch eingelesenen Messwerte 96

Detaillierte Wetter- und Klima- Messwerte für den 04.01.2016 in Holzhau im Erzgebirge (630m ü.NN)
ZeitTemperaturLuftdruckRel. LuftfeuchteWindWindrichtungWindchillTaupunktNiederschlag l/m²
23:45:00-6.70 °C990.70 hPa90.00 %-8.20 °C 
23:30:00-6.70 °C990.70 hPa90.00 %3.96 km/hNNO-6.70 °C-8.20 °C 
23:15:00-6.80 °C990.80 hPa90.00 %-8.30 °C 
23:00:00-6.80 °C990.80 hPa90.00 %2.52 km/hNNO-6.80 °C-8.30 °C 
22:45:00-6.90 °C990.90 hPa90.00 %5.76 km/hO-9.80 °C-8.40 °C 
22:30:00-6.90 °C990.80 hPa90.00 %-8.40 °C 
22:15:00-6.90 °C990.80 hPa90.00 %-8.40 °C 
22:00:00-7.00 °C990.80 hPa90.00 %-8.50 °C 
21:45:00-7.10 °C991.10 hPa90.00 %3.60 km/hOSO-7.10 °C-8.60 °C 
21:30:00-7.10 °C991.30 hPa90.00 %-8.60 °C 
21:15:00-7.20 °C991.40 hPa90.00 %3.96 km/hSO-7.20 °C-8.70 °C 
21:00:00-7.20 °C991.50 hPa90.00 %-8.70 °C 
20:45:00-7.20 °C991.40 hPa90.00 %1.80 km/hOSO-7.20 °C-8.70 °C 
20:30:00-7.20 °C991.40 hPa90.00 %6.12 km/hOSO-10.40 °C-8.70 °C 
20:15:00-7.20 °C991.20 hPa90.00 %9.36 km/hOSO-11.70 °C-8.70 °C 
20:00:00-7.20 °C991.10 hPa90.00 %-8.70 °C 
19:45:00-7.20 °C991.00 hPa89.00 %7.56 km/hOSO-11.00 °C-8.90 °C 
19:30:00-7.30 °C990.80 hPa89.00 %-9.00 °C 
19:15:00-7.20 °C990.80 hPa89.00 %4.32 km/hNNO-7.20 °C-8.90 °C 
19:00:00-7.30 °C990.60 hPa89.00 %-9.00 °C 
18:45:00-7.30 °C990.70 hPa89.00 %-9.00 °C 
18:30:00-7.30 °C990.80 hPa89.00 %-9.00 °C 
18:15:00-7.20 °C990.60 hPa89.00 %-8.90 °C 
18:00:00-7.20 °C990.80 hPa89.00 %-8.90 °C 
17:45:00-7.30 °C990.70 hPa89.00 %3.24 km/hNO-7.30 °C-9.00 °C 
17:30:00-7.30 °C990.80 hPa89.00 %-9.00 °C 
17:15:00-7.30 °C990.70 hPa89.00 %-9.00 °C 
17:00:00-7.30 °C990.80 hPa89.00 %4.32 km/hN-7.30 °C-9.00 °C 
16:45:00-7.20 °C990.80 hPa89.00 %-8.90 °C 
16:30:00-7.20 °C990.60 hPa89.00 %-8.90 °C 
16:15:00-7.10 °C990.70 hPa89.00 %-8.80 °C 
16:00:00-7.10 °C990.60 hPa89.00 %-8.80 °C 
15:45:00-6.90 °C990.40 hPa89.00 %2.88 km/hSO-6.90 °C-8.60 °C 
15:30:00-6.90 °C990.40 hPa89.00 %-8.60 °C 
15:15:00-6.90 °C990.50 hPa89.00 %-8.60 °C 
15:00:00-6.90 °C990.60 hPa89.00 %-8.60 °C 
14:45:00-6.90 °C990.70 hPa89.00 %-8.60 °C 
14:30:00-6.90 °C990.40 hPa89.00 %-8.60 °C 
14:15:00-6.90 °C990.50 hPa89.00 %-8.60 °C 
14:00:00-6.90 °C990.30 hPa89.00 %-8.60 °C 
13:45:00-6.90 °C990.20 hPa89.00 %4.32 km/hSO-6.90 °C-8.60 °C 
13:30:00-7.00 °C990.10 hPa89.00 %8.28 km/hO-11.10 °C-8.70 °C 
13:15:00-7.10 °C990.40 hPa89.00 %11.52 km/hSO-12.30 °C-8.80 °C 
13:00:00-7.10 °C990.10 hPa89.00 %11.88 km/hSSO-12.40 °C-8.80 °C 
12:45:00-6.90 °C990.30 hPa89.00 %10.08 km/hOSO-11.60 °C-8.60 °C 
12:30:00-6.90 °C990.10 hPa89.00 %-8.60 °C 
12:15:00-6.90 °C990.20 hPa90.00 %7.92 km/hSW-10.80 °C-8.40 °C 
12:00:00-7.10 °C990.20 hPa90.00 %-8.60 °C 
11:45:00-7.20 °C990.40 hPa90.00 %-8.70 °C 
11:30:00-7.10 °C990.40 hPa90.00 %1.44 km/hN-7.10 °C-8.60 °C 
11:15:00-7.30 °C990.40 hPa90.00 %8.28 km/hN-11.40 °C-8.80 °C 
11:00:00-7.50 °C990.70 hPa90.00 %-9.00 °C 
10:45:00-7.60 °C990.70 hPa90.00 %5.40 km/hNNO-10.40 °C-9.10 °C 
10:30:00-7.80 °C990.60 hPa90.00 %13.68 km/hOSO-13.70 °C-9.30 °C 
10:15:00-7.90 °C990.80 hPa90.00 %1.80 km/hNNW-7.90 °C-9.40 °C 
10:00:00-8.00 °C990.80 hPa90.00 %10.08 km/hONO-12.90 °C-9.50 °C 
09:45:00-8.10 °C990.80 hPa90.00 %-9.60 °C 
09:30:00-8.10 °C990.90 hPa90.00 %5.76 km/hSSO-11.20 °C-9.60 °C 
09:15:00-8.20 °C991.00 hPa90.00 %-9.70 °C 
09:00:00-8.20 °C990.80 hPa90.00 %10.44 km/hSO-13.30 °C-9.70 °C 
08:45:00-8.40 °C990.80 hPa90.00 %12.24 km/hSO-14.00 °C-9.90 °C 
08:30:00-8.40 °C990.80 hPa90.00 %9.00 km/hSSO-13.00 °C-9.90 °C 
08:15:00-8.40 °C991.10 hPa90.00 %-9.90 °C 
08:00:00-8.40 °C991.00 hPa91.00 %2.52 km/hSO-8.40 °C-9.80 °C 
07:45:00-8.40 °C991.00 hPa91.00 %-9.80 °C 
07:30:00-8.50 °C991.20 hPa91.00 %6.48 km/hSSO-12.00 °C-9.90 °C 
07:15:00-8.50 °C991.40 hPa91.00 %8.64 km/hS-13.00 °C-9.90 °C 
07:00:00-8.50 °C991.50 hPa91.00 %16.20 km/hOSO-15.20 °C-9.90 °C 
06:45:00-8.60 °C991.50 hPa91.00 %16.56 km/hSSW-15.40 °C-10.00 °C 
06:30:00-8.60 °C991.80 hPa91.00 %1.44 km/hS-8.60 °C-10.00 °C 
06:15:00-8.60 °C991.90 hPa91.00 %-10.00 °C 
06:00:00-8.60 °C992.00 hPa91.00 %14.40 km/hSO-14.90 °C-10.00 °C 
05:45:00-8.60 °C992.20 hPa91.00 %-10.00 °C 
05:30:00-8.60 °C992.40 hPa91.00 %21.96 km/hO-16.50 °C-10.00 °C 
05:15:00-8.50 °C992.40 hPa91.00 %5.76 km/hSSO-11.70 °C-9.90 °C 
05:00:00-8.50 °C992.50 hPa91.00 %2.88 km/hOSO-8.50 °C-9.90 °C 
04:45:00-8.40 °C993.20 hPa91.00 %10.08 km/hONO-13.40 °C-9.80 °C 
04:30:00-8.40 °C993.30 hPa91.00 %3.60 km/hOSO-8.40 °C-9.80 °C 
04:15:00-8.40 °C993.40 hPa91.00 %11.16 km/hO-13.70 °C-9.80 °C 
04:00:00-8.40 °C993.40 hPa91.00 %8.64 km/hO-12.90 °C-9.80 °C 
03:45:00-8.40 °C993.60 hPa91.00 %-9.80 °C 
03:30:00-8.40 °C994.00 hPa91.00 %17.64 km/hS-15.40 °C-9.80 °C 
03:15:00-8.40 °C994.30 hPa91.00 %-9.80 °C 
03:00:00-8.40 °C994.20 hPa91.00 %-9.80 °C 
02:45:00-8.20 °C994.20 hPa91.00 %-9.60 °C 
02:30:00-8.20 °C994.90 hPa91.00 %10.08 km/hSO-13.10 °C-9.60 °C 
02:15:00-8.10 °C995.10 hPa91.00 %7.56 km/hSO-12.10 °C-9.50 °C 
02:00:00-8.10 °C995.20 hPa91.00 %18.72 km/hSSO-15.20 °C-9.50 °C 
01:45:00-8.10 °C995.50 hPa91.00 %-9.50 °C 
01:30:00-8.10 °C995.90 hPa91.00 %10.08 km/hSO-13.00 °C-9.50 °C 
01:15:00-8.10 °C996.00 hPa91.00 %4.32 km/hSSO-8.10 °C-9.50 °C 
01:00:00-7.90 °C996.10 hPa91.00 %6.84 km/hNNO-11.50 °C-9.30 °C 
00:45:00-7.90 °C996.30 hPa91.00 %-9.30 °C 
00:30:00-7.90 °C996.80 hPa91.00 %-9.30 °C 
00:15:00-7.90 °C996.90 hPa91.00 %-9.30 °C 
00:00:00-7.90 °C997.30 hPa91.00 %5.04 km/hSSO-10.60 °C-9.30 °C 

Permanenter Link zu dieser Seite: Wetter im Erzgebirge am 04.01.2016
Performance-Info: Die Erstellung der Seite / Statistik(en) / Tabelle(n) erforderte 5 Datenbankserver-Abfrage(n) und dauerte 121 Millisekunden. (Dieser Messwert ist von der Gesamt-Auslastung des Servers abhängig.)
Erzgebirge - Wetter | Erzgebirge - Wetter (Mobilgeräte) | Komplette Klimadatenbank